createdAt,value
2019-03-26T00:02:31.061Z,19.30
2019-03-26T00:05:33.002Z,23.73
2019-03-26T00:08:34.938Z,21.03
2019-03-26T00:11:36.829Z,19.20
2019-03-26T00:14:38.826Z,19.13
2019-03-26T00:17:40.738Z,24.13
2019-03-26T00:20:42.693Z,20.73
2019-03-26T00:23:44.680Z,22.00
2019-03-26T00:26:46.644Z,23.93
2019-03-26T00:29:48.587Z,19.77
2019-03-26T00:32:50.508Z,19.90
2019-03-26T00:35:52.447Z,19.40
2019-03-26T00:38:54.399Z,27.53
2019-03-26T00:41:56.407Z,19.53
2019-03-26T00:44:58.368Z,21.20
2019-03-26T00:48:00.258Z,24.17
2019-03-26T00:51:02.185Z,22.27
2019-03-26T00:54:04.086Z,20.47
2019-03-26T00:57:06.064Z,22.27
2019-03-26T01:00:09.392Z,26.37
2019-03-26T01:03:11.477Z,20.20
2019-03-26T01:06:13.431Z,23.93
2019-03-26T01:09:15.358Z,26.50
2019-03-26T01:12:17.284Z,20.37
2019-03-26T01:15:19.267Z,24.83
2019-03-26T01:18:21.142Z,19.30
2019-03-26T01:21:23.107Z,20.13
2019-03-26T01:24:25.097Z,22.33
2019-03-26T01:27:27.030Z,19.63
2019-03-26T01:30:29.124Z,23.13
2019-03-26T01:33:31.001Z,23.73
2019-03-26T01:36:32.985Z,21.60
2019-03-26T01:39:34.874Z,23.87
2019-03-26T01:42:36.823Z,22.10
2019-03-26T01:45:38.702Z,22.57
2019-03-26T01:48:40.609Z,23.27
2019-03-26T01:51:42.521Z,25.77
2019-03-26T01:54:44.480Z,24.00
2019-03-26T01:57:46.401Z,25.03
2019-03-26T02:00:48.592Z,24.57
2019-03-26T02:03:50.503Z,25.20
2019-03-26T02:06:52.410Z,24.20
2019-03-26T02:09:54.371Z,20.47
2019-03-26T02:12:56.329Z,24.27
2019-03-26T02:15:59.429Z,27.27
2019-03-26T02:19:01.401Z,22.97
2019-03-26T02:22:04.632Z,25.43
2019-03-26T02:25:06.729Z,24.80
2019-03-26T02:28:08.618Z,22.00
2019-03-26T02:31:10.584Z,23.63
2019-03-26T02:34:12.511Z,22.50
2019-03-26T02:37:14.423Z,20.30
2019-03-26T02:40:16.348Z,22.83
2019-03-26T02:43:18.276Z,20.73
2019-03-26T02:46:20.284Z,24.07
2019-03-26T02:49:22.221Z,21.70
2019-03-26T02:52:24.198Z,20.47
2019-03-26T02:55:26.105Z,22.90
2019-03-26T02:58:28.084Z,16.47
2019-03-26T03:01:30.250Z,19.03
2019-03-26T03:04:32.202Z,17.13
2019-03-26T03:07:34.147Z,16.87
2019-03-26T03:10:36.083Z,22.13
2019-03-26T03:13:38.040Z,22.23
2019-03-26T03:16:40.034Z,22.80
2019-03-26T03:19:42.001Z,23.30
2019-03-26T03:22:43.942Z,21.57
2019-03-26T03:25:45.890Z,20.20
2019-03-26T03:28:47.957Z,19.97
2019-03-26T03:31:49.928Z,23.70
2019-03-26T03:34:51.959Z,20.60
2019-03-26T03:37:53.898Z,25.50
2019-03-26T03:40:55.928Z,22.17
2019-03-26T03:43:57.825Z,22.50
2019-03-26T03:47:01.367Z,24.50
2019-03-26T03:50:05.542Z,20.30
2019-03-26T03:53:08.711Z,21.93
2019-03-26T03:56:13.246Z,23.40
2019-03-26T03:59:16.022Z,18.53
2019-03-26T04:02:18.279Z,23.13
2019-03-26T04:05:20.309Z,22.40
2019-03-26T04:08:22.234Z,22.40
2019-03-26T04:11:24.189Z,25.87
2019-03-26T04:14:26.153Z,21.53
2019-03-26T04:17:28.145Z,22.13
2019-03-26T04:20:30.031Z,22.57
2019-03-26T04:23:33.309Z,19.70
2019-03-26T04:26:36.087Z,25.33
2019-03-26T04:29:40.906Z,20.93
2019-03-26T04:32:42.907Z,30.20
2019-03-26T04:35:44.867Z,36.73
2019-03-26T04:38:46.865Z,26.47
2019-03-26T04:41:48.824Z,21.00
2019-03-26T04:44:50.803Z,24.80
2019-03-26T04:47:52.763Z,20.73
2019-03-26T04:50:54.787Z,21.83
2019-03-26T04:53:56.767Z,24.13
2019-03-26T04:56:58.841Z,27.70
2019-03-26T05:00:00.744Z,26.97
2019-03-26T05:03:02.914Z,23.03
2019-03-26T05:06:04.842Z,27.70
2019-03-26T05:09:06.831Z,25.10
2019-03-26T05:12:08.749Z,21.53
2019-03-26T05:15:11.121Z,28.97
2019-03-26T05:18:13.043Z,23.00
2019-03-26T05:21:16.318Z,26.83
2019-03-26T05:24:18.289Z,23.67
2019-03-26T05:27:22.159Z,20.77
2019-03-26T05:30:24.667Z,20.03
2019-03-26T05:33:27.830Z,23.53
2019-03-26T05:36:29.882Z,21.77
2019-03-26T05:39:31.827Z,22.90
2019-03-26T05:42:33.789Z,23.23
2019-03-26T05:45:35.873Z,25.37
2019-03-26T05:48:37.773Z,23.40
2019-03-26T05:51:39.750Z,26.77
2019-03-26T05:54:41.665Z,25.10
2019-03-26T05:57:43.597Z,22.70
2019-03-26T06:00:45.551Z,28.53
2019-03-26T06:03:47.713Z,31.57
2019-03-26T06:06:49.711Z,28.23
2019-03-26T06:09:51.661Z,42.87
2019-03-26T06:12:53.694Z,24.03
2019-03-26T06:15:55.698Z,25.33
2019-03-26T06:18:57.690Z,20.90
2019-03-26T06:21:59.625Z,20.90
2019-03-26T06:25:01.544Z,15.80
2019-03-26T06:28:03.538Z,16.37
2019-03-26T06:31:05.484Z,16.93
2019-03-26T06:34:10.383Z,15.20
2019-03-26T06:37:17.692Z,15.07
2019-03-26T06:40:15.657Z,18.33
2019-03-26T06:43:17.624Z,19.50
2019-03-26T06:46:19.535Z,17.87
2019-03-26T06:49:21.584Z,17.53
2019-03-26T06:52:23.566Z,17.43
2019-03-26T06:55:25.614Z,16.50
2019-03-26T06:58:28.637Z,15.20
2019-03-26T07:01:30.879Z,13.77
2019-03-26T07:04:32.984Z,16.23
2019-03-26T07:07:35.008Z,13.97
2019-03-26T07:10:38.312Z,19.33
2019-03-26T07:13:40.270Z,13.57
2019-03-26T07:16:42.215Z,12.67
2019-03-26T07:19:44.184Z,15.67
2019-03-26T07:22:46.154Z,13.73
2019-03-26T07:25:48.100Z,13.73
2019-03-26T07:28:50.088Z,18.47
2019-03-26T07:31:52.023Z,12.93
2019-03-26T07:34:54.107Z,16.63
2019-03-26T07:37:56.045Z,13.50
2019-03-26T07:40:58.070Z,13.60
2019-03-26T07:44:00.085Z,16.90
2019-03-26T07:47:02.057Z,14.07
2019-03-26T07:50:06.166Z,12.43
2019-03-26T07:53:08.166Z,16.97
2019-03-26T07:56:10.096Z,13.90
2019-03-26T07:59:12.070Z,15.03
2019-03-26T08:02:14.038Z,16.33
2019-03-26T08:05:29.060Z,14.43
2019-03-26T08:08:19.997Z,13.40
2019-03-26T08:11:22.001Z,15.57
2019-03-26T08:14:23.933Z,12.37
2019-03-26T08:17:25.998Z,14.13
2019-03-26T08:20:27.912Z,11.50
2019-03-26T08:23:29.838Z,13.03
2019-03-26T08:26:32.079Z,12.27
2019-03-26T08:29:34.066Z,8.77
2019-03-26T08:32:37.255Z,10.63
2019-03-26T08:35:41.079Z,12.37
2019-03-26T08:38:43.001Z,10.93
2019-03-26T08:41:45.019Z,10.83
2019-03-26T08:44:46.998Z,9.50
2019-03-26T08:47:50.446Z,11.30
2019-03-26T08:50:52.382Z,10.70
2019-03-26T08:53:54.363Z,9.70
2019-03-26T08:56:56.344Z,12.70
2019-03-26T08:59:58.261Z,11.10
2019-03-26T09:03:00.229Z,8.90
2019-03-26T09:06:02.425Z,10.00
2019-03-26T09:09:06.405Z,12.47
2019-03-26T09:12:08.348Z,10.00
2019-03-26T09:15:14.061Z,9.83
2019-03-26T09:18:14.590Z,8.23
2019-03-26T09:21:16.591Z,8.53
2019-03-26T09:24:18.515Z,7.73
2019-03-26T09:27:21.027Z,8.90
2019-03-26T09:30:22.940Z,7.70
2019-03-26T09:33:24.875Z,10.83
2019-03-26T09:36:26.841Z,8.10
2019-03-26T09:39:28.884Z,19.77
2019-03-26T09:42:30.885Z,22.90
2019-03-26T09:45:32.917Z,13.13
2019-03-26T09:48:34.901Z,13.17
2019-03-26T09:51:36.874Z,14.97
2019-03-26T09:54:38.801Z,13.80
2019-03-26T09:57:40.773Z,6.00
2019-03-26T10:00:42.843Z,7.20
2019-03-26T10:03:45.013Z,9.53
2019-03-26T10:06:47.197Z,6.83
2019-03-26T10:09:49.208Z,5.23
2019-03-26T10:12:51.240Z,6.20
2019-03-26T10:15:53.350Z,5.37
2019-03-26T10:18:55.313Z,4.93
2019-03-26T10:21:57.278Z,5.20
2019-03-26T10:24:59.272Z,6.20
2019-03-26T10:28:01.324Z,3.90
2019-03-26T10:31:03.248Z,5.50
2019-03-26T10:34:05.204Z,5.83
2019-03-26T10:37:08.293Z,4.00
2019-03-26T10:40:13.940Z,8.93
2019-03-26T10:43:15.890Z,8.57
2019-03-26T10:46:18.352Z,6.20
2019-03-26T10:49:20.323Z,7.00
2019-03-26T10:52:22.252Z,6.60
2019-03-26T10:55:24.237Z,6.37
2019-03-26T10:58:26.166Z,7.83
2019-03-26T11:01:28.152Z,8.20
2019-03-26T11:04:30.476Z,8.43
2019-03-26T11:07:32.804Z,8.27
2019-03-26T11:10:37.826Z,5.47
2019-03-26T11:13:39.879Z,7.13
2019-03-26T11:16:41.831Z,7.93
2019-03-26T11:19:46.565Z,6.47
2019-03-26T11:22:48.664Z,8.63
2019-03-26T11:25:50.756Z,15.87
2019-03-26T11:28:52.801Z,14.50
2019-03-26T11:31:54.868Z,16.70
2019-03-26T11:34:56.851Z,16.73
2019-03-26T11:37:58.948Z,18.80
2019-03-26T11:41:00.936Z,21.00
2019-03-26T11:44:04.685Z,18.73
2019-03-26T11:47:06.932Z,20.47
2019-03-26T11:50:11.070Z,15.70
2019-03-26T11:53:13.055Z,17.03
2019-03-26T11:56:15.094Z,16.43
2019-03-26T11:59:17.010Z,19.03
2019-03-26T12:02:18.990Z,14.63
2019-03-26T12:05:21.671Z,16.43
2019-03-26T12:08:23.840Z,19.00
2019-03-26T12:11:25.796Z,17.37
2019-03-26T12:14:27.878Z,17.90
2019-03-26T12:17:29.873Z,17.07
2019-03-26T12:20:31.912Z,17.63
2019-03-26T12:23:33.838Z,19.50
2019-03-26T12:26:35.911Z,27.60
2019-03-26T12:29:37.910Z,19.70
2019-03-26T12:32:41.229Z,22.17
2019-03-26T12:35:43.513Z,21.57
2019-03-26T12:38:45.609Z,20.47
2019-03-26T12:41:47.547Z,18.50
2019-03-26T12:44:49.552Z,17.87
2019-03-26T12:47:51.489Z,17.60
2019-03-26T12:50:53.519Z,13.33
2019-03-26T12:53:55.452Z,15.77
2019-03-26T12:56:57.520Z,10.80
2019-03-26T13:00:00.823Z,5.77
2019-03-26T13:03:02.744Z,6.03
2019-03-26T13:06:04.656Z,10.10
2019-03-26T13:09:07.936Z,9.90
2019-03-26T13:12:09.832Z,9.47
2019-03-26T13:15:11.839Z,28.07
2019-03-26T13:18:13.763Z,49.13
2019-03-26T13:21:15.703Z,7.23
2019-03-26T13:24:17.624Z,7.73
2019-03-26T13:27:19.579Z,7.23
2019-03-26T13:30:24.573Z,9.10
2019-03-26T13:33:26.591Z,12.67
2019-03-26T13:36:28.554Z,6.97
2019-03-26T13:39:30.596Z,14.47
2019-03-26T13:42:32.574Z,9.60
2019-03-26T13:45:34.549Z,9.87
2019-03-26T13:48:37.597Z,7.13
2019-03-26T13:51:39.594Z,11.03
2019-03-26T13:54:41.542Z,8.47
2019-03-26T13:57:43.533Z,10.20
2019-03-26T14:00:45.559Z,15.03
2019-03-26T14:03:47.762Z,10.30
2019-03-26T14:06:52.369Z,9.73
2019-03-26T14:09:53.800Z,9.47
2019-03-26T14:12:55.796Z,10.37
2019-03-26T14:15:57.770Z,9.87
2019-03-26T14:18:59.781Z,11.50
2019-03-26T14:22:02.242Z,8.03
2019-03-26T14:25:04.323Z,6.33
2019-03-26T14:28:06.243Z,7.23
2019-03-26T14:31:08.299Z,8.57
2019-03-26T14:34:10.852Z,8.80
2019-03-26T14:37:12.869Z,10.27
2019-03-26T14:40:15.076Z,11.20
2019-03-26T14:43:17.117Z,8.50
2019-03-26T14:46:19.110Z,12.17
2019-03-26T14:49:21.106Z,12.27
2019-03-26T14:52:23.129Z,7.70
2019-03-26T14:55:25.082Z,7.87
2019-03-26T14:58:27.021Z,9.63
2019-03-26T15:01:28.964Z,7.40
2019-03-26T15:04:30.890Z,11.73
2019-03-26T15:07:32.839Z,12.50
2019-03-26T15:10:34.891Z,9.43
2019-03-26T15:13:36.812Z,6.87
2019-03-26T15:16:38.729Z,13.77
2019-03-26T15:19:40.673Z,8.83
2019-03-26T15:22:42.584Z,11.40
2019-03-26T15:25:44.626Z,9.80
2019-03-26T15:28:47.715Z,7.67
2019-03-26T15:31:50.029Z,9.27
2019-03-26T15:34:53.177Z,13.47
2019-03-26T15:37:55.456Z,9.37
2019-03-26T15:40:57.441Z,6.37
2019-03-26T15:43:59.318Z,13.97
2019-03-26T15:47:01.298Z,11.47
2019-03-26T15:50:06.072Z,9.10
2019-03-26T15:53:08.197Z,12.10
2019-03-26T15:56:10.110Z,8.53
2019-03-26T15:59:12.056Z,13.40
2019-03-26T16:02:13.917Z,8.30
2019-03-26T16:05:15.859Z,12.93
2019-03-26T16:08:18.970Z,8.30
2019-03-26T16:11:34.771Z,9.87
2019-03-26T16:14:27.990Z,12.50
2019-03-26T16:17:28.777Z,9.63
2019-03-26T16:20:30.633Z,9.70
2019-03-26T16:23:32.601Z,12.00
2019-03-26T16:26:34.469Z,14.37
2019-03-26T16:29:36.429Z,13.23
2019-03-26T16:32:38.367Z,12.70
2019-03-26T16:35:40.573Z,11.00
2019-03-26T16:38:43.942Z,10.03
2019-03-26T16:41:49.331Z,17.43
2019-03-26T16:44:51.636Z,11.00
2019-03-26T16:47:54.023Z,10.27
2019-03-26T16:50:56.817Z,12.97
2019-03-26T16:53:59.770Z,20.73
2019-03-26T16:57:03.308Z,15.13
2019-03-26T17:00:07.550Z,12.37
2019-03-26T17:03:11.560Z,10.17
2019-03-26T17:06:14.274Z,10.87
2019-03-26T17:09:16.509Z,12.10
2019-03-26T17:12:18.593Z,13.30
2019-03-26T17:15:21.810Z,16.53
2019-03-26T17:18:23.748Z,13.80
2019-03-26T17:21:25.676Z,12.77
2019-03-26T17:24:27.584Z,23.47
2019-03-26T17:27:29.519Z,28.03
2019-03-26T17:30:31.447Z,13.03
2019-03-26T17:33:33.406Z,25.97
2019-03-26T17:36:35.312Z,18.80
2019-03-26T17:39:37.994Z,11.73
2019-03-26T17:42:42.302Z,17.73
2019-03-26T17:45:44.332Z,14.13
2019-03-26T17:48:48.127Z,19.97
2019-03-26T17:51:50.506Z,14.40
2019-03-26T17:54:52.434Z,21.67
2019-03-26T17:57:54.349Z,15.17
2019-03-26T18:00:57.361Z,22.80
2019-03-26T18:04:02.925Z,19.00
2019-03-26T18:07:05.612Z,13.13
2019-03-26T18:10:09.817Z,15.63
2019-03-26T18:13:16.561Z,11.90
2019-03-26T18:16:18.547Z,29.20
2019-03-26T18:19:25.064Z,28.97
2019-03-26T18:22:28.104Z,27.17
2019-03-26T18:25:30.289Z,27.50
2019-03-26T18:28:32.570Z,23.23
2019-03-26T18:31:34.472Z,18.77
2019-03-26T18:34:39.722Z,21.30
2019-03-26T18:37:41.673Z,19.27
2019-03-26T18:40:44.349Z,17.97
2019-03-26T18:43:47.689Z,14.47
2019-03-26T18:46:53.220Z,11.63
2019-03-26T18:49:55.185Z,6.13
2019-03-26T18:52:59.095Z,9.50
2019-03-26T18:56:01.052Z,6.83
2019-03-26T18:59:03.220Z,8.87
2019-03-26T19:02:05.176Z,11.97
2019-03-26T19:05:08.277Z,13.53
2019-03-26T19:08:10.157Z,12.17
2019-03-26T19:11:12.219Z,25.87
2019-03-26T19:14:14.548Z,46.13
2019-03-26T19:17:16.531Z,87.53
2019-03-26T19:20:20.071Z,62.90
2019-03-26T19:23:25.092Z,138.50
2019-03-26T19:26:29.883Z,63.30
2019-03-26T19:29:32.924Z,45.53
2019-03-26T19:32:35.070Z,36.50
2019-03-26T19:35:37.028Z,26.63
2019-03-26T19:38:39.027Z,78.40
2019-03-26T19:41:43.131Z,83.67
2019-03-26T19:44:45.122Z,70.10
2019-03-26T19:47:47.379Z,51.73
2019-03-26T19:50:51.200Z,41.17
2019-03-26T19:53:53.186Z,34.87
2019-03-26T19:56:56.309Z,31.37
2019-03-26T19:59:58.324Z,20.97
2019-03-26T20:03:01.903Z,20.63
2019-03-26T20:06:13.379Z,29.10
2019-03-26T20:09:13.036Z,38.10
2019-03-26T20:12:21.647Z,78.97
2019-03-26T20:15:25.808Z,49.43
2019-03-26T20:18:28.084Z,52.50
2019-03-26T20:21:31.441Z,76.40
2019-03-26T20:24:33.487Z,21.77
2019-03-26T20:27:36.004Z,15.50
2019-03-26T20:30:38.612Z,13.47
2019-03-26T20:33:42.705Z,14.33
2019-03-26T20:36:47.328Z,17.57
2019-03-26T20:39:51.062Z,16.40
2019-03-26T20:42:55.552Z,14.10
2019-03-26T20:45:57.548Z,12.93
2019-03-26T20:48:59.507Z,12.43
2019-03-26T20:52:01.429Z,15.93
2019-03-26T20:55:08.621Z,14.27
2019-03-26T20:58:10.573Z,17.10
2019-03-26T21:01:16.531Z,14.47
2019-03-26T21:04:21.056Z,13.63
2019-03-26T21:07:24.352Z,10.10
2019-03-26T21:10:28.151Z,18.27
2019-03-26T21:13:30.161Z,15.23
2019-03-26T21:16:32.558Z,21.07
2019-03-26T21:19:34.882Z,17.83
2019-03-26T21:22:37.396Z,19.03
2019-03-26T21:25:39.346Z,13.47
2019-03-26T21:28:41.377Z,12.00
2019-03-26T21:31:43.310Z,17.93
2019-03-26T21:34:45.378Z,12.87
2019-03-26T21:37:47.472Z,16.70
2019-03-26T21:40:49.469Z,16.40
2019-03-26T21:44:03.602Z,15.70
2019-03-26T21:46:55.281Z,19.90
2019-03-26T21:49:57.207Z,17.50
2019-03-26T21:53:01.067Z,25.87
2019-03-26T21:56:06.882Z,25.60
2019-03-26T21:59:07.437Z,20.13
2019-03-26T22:02:09.473Z,16.80
2019-03-26T22:05:11.641Z,16.47
2019-03-26T22:08:13.543Z,20.47
2019-03-26T22:11:15.658Z,19.37
2019-03-26T22:14:18.620Z,13.17
2019-03-26T22:17:21.108Z,22.30
2019-03-26T22:20:23.059Z,20.40
2019-03-26T22:23:25.063Z,18.00
2019-03-26T22:26:27.037Z,23.50
2019-03-26T22:29:29.072Z,28.60
2019-03-26T22:32:31.024Z,22.33
2019-03-26T22:35:32.991Z,20.57
2019-03-26T22:38:34.924Z,18.93
2019-03-26T22:41:38.155Z,17.00
2019-03-26T22:44:40.076Z,20.83
2019-03-26T22:47:42.159Z,13.70
2019-03-26T22:50:44.070Z,13.10
2019-03-26T22:53:46.029Z,19.27
2019-03-26T22:56:48.006Z,15.30
2019-03-26T22:59:50.024Z,17.10
2019-03-26T23:02:51.968Z,18.47
2019-03-26T23:05:53.876Z,16.10
2019-03-26T23:08:55.872Z,18.13
2019-03-26T23:11:57.804Z,14.60
2019-03-26T23:15:00.510Z,14.73
2019-03-26T23:18:02.797Z,15.63
2019-03-26T23:21:04.791Z,20.00
2019-03-26T23:24:06.753Z,21.50
2019-03-26T23:27:08.917Z,20.13
2019-03-26T23:30:11.874Z,27.47
2019-03-26T23:33:15.094Z,22.63
2019-03-26T23:36:17.128Z,20.10
2019-03-26T23:39:19.120Z,19.27
2019-03-26T23:42:21.078Z,24.20
2019-03-26T23:45:23.112Z,18.87
2019-03-26T23:48:25.160Z,41.53
2019-03-26T23:51:27.167Z,30.67
2019-03-26T23:54:29.108Z,39.27
2019-03-26T23:57:31.091Z,33.70
